createdAt,value
2023-03-06T00:00:49.483Z,88.72
2023-03-06T00:03:16.561Z,88.71
2023-03-06T00:05:43.236Z,88.65
2023-03-06T00:08:10.034Z,88.78
2023-03-06T00:10:36.703Z,89.03
2023-03-06T00:13:05.661Z,88.81
2023-03-06T00:15:32.525Z,88.90
2023-03-06T00:17:59.188Z,88.99
2023-03-06T00:20:26.612Z,89.10
2023-03-06T00:22:53.199Z,88.84
2023-03-06T00:25:21.247Z,89.37
2023-03-06T00:27:48.080Z,89.23
2023-03-06T00:30:17.463Z,89.25
2023-03-06T00:32:44.877Z,89.34
2023-03-06T00:35:11.841Z,89.27
2023-03-06T00:37:38.619Z,90.06
2023-03-06T00:40:06.651Z,89.80
2023-03-06T00:42:33.359Z,90.60
2023-03-06T00:44:59.951Z,90.20
2023-03-06T00:47:26.442Z,90.30
2023-03-06T00:49:52.990Z,90.72
2023-03-06T00:52:19.491Z,90.58
2023-03-06T00:54:46.001Z,91.24
2023-03-06T00:57:12.901Z,91.13
2023-03-06T00:59:39.415Z,91.39
2023-03-06T01:02:06.026Z,91.46
2023-03-06T01:04:32.792Z,91.44
2023-03-06T01:06:59.510Z,91.45
2023-03-06T01:09:26.086Z,90.88
2023-03-06T01:11:52.622Z,90.55
2023-03-06T01:14:19.468Z,90.84
2023-03-06T01:16:46.911Z,90.00
2023-03-06T01:19:13.602Z,90.12
2023-03-06T01:21:40.100Z,88.99
2023-03-06T01:24:07.120Z,89.17
2023-03-06T01:26:34.605Z,88.92
2023-03-06T01:29:01.747Z,89.20
2023-03-06T01:31:28.296Z,88.77
2023-03-06T01:33:54.964Z,87.95
2023-03-06T01:36:21.678Z,88.13
2023-03-06T01:38:48.220Z,88.31
2023-03-06T01:41:15.901Z,88.21
2023-03-06T01:43:44.841Z,87.77
2023-03-06T01:46:30.335Z,88.74
2023-03-06T01:49:18.388Z,88.73
2023-03-06T01:52:03.438Z,88.09
2023-03-06T01:54:34.587Z,88.95
2023-03-06T01:57:05.526Z,88.76
2023-03-06T01:59:33.948Z,89.13
2023-03-06T02:02:01.944Z,89.17
2023-03-06T02:04:29.332Z,89.46
2023-03-06T02:06:56.201Z,89.34
2023-03-06T02:09:22.817Z,89.40
2023-03-06T02:11:49.386Z,89.73
2023-03-06T02:14:17.146Z,89.46
2023-03-06T02:16:44.156Z,89.06
2023-03-06T02:19:33.324Z,89.14
2023-03-06T02:22:00.027Z,89.53
2023-03-06T02:24:39.146Z,89.79
2023-03-06T02:27:07.505Z,89.78
2023-03-06T02:29:34.291Z,90.26
2023-03-06T02:32:00.828Z,90.62
2023-03-06T02:34:27.279Z,90.69
2023-03-06T02:37:00.982Z,90.97
2023-03-06T02:39:30.206Z,90.69
2023-03-06T02:41:56.772Z,90.74
2023-03-06T02:44:23.985Z,90.62
2023-03-06T02:46:50.509Z,91.07
2023-03-06T02:49:16.989Z,91.26
2023-03-06T02:51:43.568Z,90.57
2023-03-06T02:54:10.986Z,90.59
2023-03-06T02:56:37.542Z,90.94
2023-03-06T02:59:04.083Z,91.08
2023-03-06T03:01:30.834Z,90.77
2023-03-06T03:03:57.418Z,91.11
2023-03-06T03:06:24.016Z,91.29
2023-03-06T03:08:50.492Z,91.38
2023-03-06T03:11:16.999Z,91.54
2023-03-06T03:13:43.573Z,90.93
2023-03-06T03:16:14.156Z,91.44
2023-03-06T03:18:41.460Z,91.54
2023-03-06T03:21:12.643Z,91.10
2023-03-06T03:23:39.317Z,91.09
2023-03-06T03:26:08.260Z,90.68
2023-03-06T03:28:34.979Z,91.15
2023-03-06T03:31:06.475Z,90.18
2023-03-06T03:33:33.712Z,90.50
2023-03-06T03:36:01.946Z,90.35
2023-03-06T03:38:29.026Z,89.87
2023-03-06T03:40:55.565Z,89.50
2023-03-06T03:43:22.063Z,89.06
2023-03-06T03:45:48.611Z,88.28
2023-03-06T03:48:15.162Z,87.57
2023-03-06T03:50:42.243Z,87.53
2023-03-06T03:53:08.775Z,86.94
2023-03-06T03:55:35.347Z,86.91
2023-03-06T03:58:01.962Z,86.88
2023-03-06T04:00:28.824Z,86.94
2023-03-06T04:02:55.410Z,87.32
2023-03-06T04:05:21.972Z,87.38
2023-03-06T04:07:48.493Z,86.66
2023-03-06T04:10:15.397Z,86.83
2023-03-06T04:12:42.160Z,87.05
2023-03-06T04:15:08.994Z,86.86
2023-03-06T04:17:35.648Z,86.34
2023-03-06T04:20:04.148Z,87.34
2023-03-06T04:22:31.098Z,86.37
2023-03-06T04:24:57.636Z,86.95
2023-03-06T04:27:24.340Z,86.27
2023-03-06T04:29:50.880Z,86.53
2023-03-06T04:32:18.725Z,85.51
2023-03-06T04:34:46.850Z,85.46
2023-03-06T04:37:24.468Z,85.09
2023-03-06T04:39:51.496Z,85.64
2023-03-06T04:42:18.650Z,85.05
2023-03-06T04:44:45.486Z,85.42
2023-03-06T04:47:12.765Z,85.50
2023-03-06T04:49:39.540Z,85.70
2023-03-06T04:52:06.401Z,85.31
2023-03-06T04:54:32.986Z,85.40
2023-03-06T04:56:59.547Z,86.38
2023-03-06T04:59:26.179Z,85.88
2023-03-06T05:01:52.880Z,86.01
2023-03-06T05:04:19.544Z,85.72
2023-03-06T05:06:46.362Z,85.16
2023-03-06T05:09:12.932Z,86.29
2023-03-06T05:11:39.633Z,86.06
2023-03-06T05:14:06.430Z,86.23
2023-03-06T05:16:33.086Z,85.41
2023-03-06T05:18:59.613Z,86.40
2023-03-06T05:21:26.104Z,86.17
2023-03-06T05:23:53.046Z,85.85
2023-03-06T05:26:19.688Z,85.93
2023-03-06T05:28:46.177Z,85.39
2023-03-06T05:31:12.745Z,85.90
2023-03-06T05:33:39.338Z,85.67
2023-03-06T05:36:08.330Z,85.70
2023-03-06T05:38:35.379Z,86.35
2023-03-06T05:41:01.906Z,85.97
2023-03-06T05:43:28.394Z,86.13
2023-03-06T05:46:03.019Z,86.19
2023-03-06T05:48:29.978Z,86.01
2023-03-06T05:51:00.678Z,86.89
2023-03-06T05:53:29.369Z,87.03
2023-03-06T05:56:01.089Z,86.93
2023-03-06T05:58:28.202Z,86.90
2023-03-06T06:00:54.762Z,86.49
2023-03-06T06:03:21.439Z,86.59
2023-03-06T06:05:48.193Z,86.20
2023-03-06T06:08:14.844Z,86.16
2023-03-06T06:10:41.402Z,86.37
2023-03-06T06:13:08.021Z,85.72
2023-03-06T06:15:34.720Z,86.14
2023-03-06T06:18:01.251Z,86.24
2023-03-06T06:20:28.488Z,85.89
2023-03-06T06:22:54.976Z,85.88
2023-03-06T06:25:21.505Z,85.81
2023-03-06T06:27:48.352Z,85.47
2023-03-06T06:30:14.960Z,86.20
2023-03-06T06:32:41.631Z,85.89
2023-03-06T06:35:08.497Z,86.09
2023-03-06T06:37:35.445Z,85.78
2023-03-06T06:40:02.001Z,85.72
2023-03-06T06:42:35.794Z,86.11
2023-03-06T06:45:06.080Z,86.91
2023-03-06T06:47:34.318Z,87.27
2023-03-06T06:50:00.935Z,87.70
2023-03-06T06:52:27.515Z,88.18
2023-03-06T06:54:54.203Z,88.18
2023-03-06T06:57:21.042Z,87.86
2023-03-06T06:59:47.590Z,88.88
2023-03-06T07:02:15.916Z,88.89
2023-03-06T07:05:00.351Z,89.65
2023-03-06T07:07:29.662Z,88.83
2023-03-06T07:09:56.174Z,89.39
2023-03-06T07:12:22.717Z,89.07
2023-03-06T07:14:49.213Z,89.38
2023-03-06T07:17:15.756Z,89.84
2023-03-06T07:19:42.343Z,89.99
2023-03-06T07:22:08.903Z,90.06
2023-03-06T07:24:35.423Z,89.55
2023-03-06T07:27:01.962Z,89.22
2023-03-06T07:29:28.575Z,89.09
2023-03-06T07:31:55.358Z,89.01
2023-03-06T07:34:22.505Z,88.56
2023-03-06T07:36:51.077Z,87.69
2023-03-06T07:39:17.602Z,87.05
2023-03-06T07:41:44.167Z,87.28
2023-03-06T07:44:10.717Z,86.57
2023-03-06T07:46:37.346Z,86.78
2023-03-06T07:49:04.042Z,86.33
2023-03-06T07:51:30.571Z,86.06
2023-03-06T07:53:57.133Z,85.55
2023-03-06T07:56:23.726Z,85.28
2023-03-06T07:58:50.403Z,84.84
2023-03-06T08:01:19.856Z,83.87
2023-03-06T08:03:47.162Z,84.25
2023-03-06T08:06:15.966Z,83.38
2023-03-06T08:08:44.363Z,83.04
2023-03-06T08:11:12.947Z,81.13
2023-03-06T08:13:39.720Z,80.16
2023-03-06T08:16:07.271Z,80.56
2023-03-06T08:18:34.428Z,80.08
2023-03-06T08:21:12.569Z,79.89
2023-03-06T08:23:39.564Z,81.06
2023-03-06T08:26:09.128Z,82.72
2023-03-06T08:28:35.632Z,84.18
2023-03-06T08:31:10.586Z,85.66
2023-03-06T08:33:37.654Z,86.14
2023-03-06T08:36:04.536Z,86.00
2023-03-06T08:38:31.217Z,87.92
2023-03-06T08:40:58.171Z,88.42
2023-03-06T08:43:24.748Z,89.71
2023-03-06T08:45:55.319Z,89.74
2023-03-06T08:48:22.120Z,89.88
2023-03-06T08:50:49.172Z,91.01
2023-03-06T08:53:15.663Z,89.48
2023-03-06T08:55:42.199Z,89.74
2023-03-06T08:58:09.119Z,89.97
2023-03-06T09:00:35.734Z,90.76
2023-03-06T09:03:02.282Z,90.24
2023-03-06T09:05:28.961Z,90.53
2023-03-06T09:07:55.537Z,90.20
2023-03-06T09:10:24.197Z,89.31
2023-03-06T09:12:53.738Z,87.88
2023-03-06T09:15:22.072Z,87.29
2023-03-06T09:17:48.758Z,87.18
2023-03-06T09:20:15.434Z,87.29
2023-03-06T09:22:45.635Z,87.50
2023-03-06T09:25:20.348Z,86.87
2023-03-06T09:27:55.480Z,86.09
2023-03-06T09:30:28.717Z,85.16
2023-03-06T09:32:55.277Z,85.26
2023-03-06T09:35:21.833Z,85.00
2023-03-06T09:37:48.391Z,82.73
2023-03-06T09:40:19.696Z,80.70
2023-03-06T09:42:46.254Z,78.92
2023-03-06T09:45:13.468Z,77.45
2023-03-06T09:47:53.554Z,78.36
2023-03-06T09:50:44.822Z,76.63
2023-03-06T09:53:26.475Z,76.03
2023-03-06T09:56:06.370Z,76.78
2023-03-06T09:58:40.028Z,75.58
2023-03-06T10:01:17.888Z,74.58
2023-03-06T10:03:59.677Z,75.33
2023-03-06T10:06:32.481Z,75.00
2023-03-06T10:09:05.747Z,74.38
2023-03-06T10:11:48.392Z,73.27
2023-03-06T10:14:48.934Z,72.07
2023-03-06T10:17:22.491Z,71.51
2023-03-06T10:19:49.406Z,70.85
2023-03-06T10:22:33.103Z,70.24
2023-03-06T10:25:14.881Z,68.73
2023-03-06T10:27:50.485Z,67.35
2023-03-06T10:30:43.294Z,66.06
2023-03-06T10:33:36.673Z,67.20
2023-03-06T10:36:04.580Z,67.65
2023-03-06T10:38:31.209Z,66.68
2023-03-06T10:41:07.146Z,65.72
2023-03-06T10:43:36.384Z,65.75
2023-03-06T10:46:03.496Z,65.95
2023-03-06T10:48:30.948Z,66.01
2023-03-06T10:51:19.400Z,67.31
2023-03-06T10:53:50.120Z,66.16
2023-03-06T10:56:31.698Z,65.30
2023-03-06T10:59:26.523Z,64.07
2023-03-06T11:01:55.415Z,62.16
2023-03-06T11:04:27.939Z,60.25
2023-03-06T11:07:14.794Z,61.82
2023-03-06T11:09:56.551Z,61.48
2023-03-06T11:12:23.198Z,62.41
2023-03-06T11:15:08.322Z,62.86
2023-03-06T11:17:52.973Z,63.25
2023-03-06T11:20:27.198Z,61.11
2023-03-06T11:23:31.227Z,61.50
2023-03-06T11:26:01.267Z,62.47
2023-03-06T11:28:34.914Z,62.18
2023-03-06T11:31:09.472Z,60.35
2023-03-06T11:33:54.154Z,60.36
2023-03-06T11:36:56.464Z,60.16
2023-03-06T11:39:37.946Z,61.96
2023-03-06T11:42:27.000Z,61.35
2023-03-06T11:45:03.142Z,60.42
2023-03-06T11:47:35.336Z,61.70
2023-03-06T11:50:36.087Z,63.09
2023-03-06T11:53:04.048Z,60.73
2023-03-06T11:55:42.457Z,61.50
2023-03-06T11:58:21.274Z,61.52
2023-03-06T12:00:53.185Z,61.84
2023-03-06T12:03:19.666Z,60.40
2023-03-06T12:06:06.093Z,60.30
2023-03-06T12:08:54.104Z,60.80
2023-03-06T12:11:23.936Z,61.17
2023-03-06T12:14:02.141Z,58.67
2023-03-06T12:16:58.659Z,57.73
2023-03-06T12:19:57.552Z,57.57
2023-03-06T12:22:36.630Z,57.42
2023-03-06T12:25:06.052Z,56.96
2023-03-06T12:27:58.966Z,56.67
2023-03-06T12:30:46.896Z,57.27
2023-03-06T12:33:24.586Z,57.66
2023-03-06T12:35:51.298Z,58.68
2023-03-06T12:39:00.231Z,58.88
2023-03-06T12:41:45.551Z,59.80
2023-03-06T12:44:21.764Z,58.16
2023-03-06T12:46:58.343Z,58.91
2023-03-06T12:49:32.700Z,58.88
2023-03-06T12:52:01.181Z,59.71
2023-03-06T12:54:29.862Z,59.77
2023-03-06T12:56:57.561Z,60.31
2023-03-06T12:59:44.062Z,59.76
2023-03-06T13:02:21.522Z,60.15
2023-03-06T13:05:13.063Z,60.34
2023-03-06T13:07:52.682Z,60.07
2023-03-06T13:10:28.272Z,59.57
2023-03-06T13:12:57.708Z,58.18
2023-03-06T13:15:44.026Z,58.45
2023-03-06T13:18:22.575Z,57.54
2023-03-06T13:20:50.787Z,57.85
2023-03-06T13:23:29.318Z,58.37
2023-03-06T13:25:57.438Z,58.68
2023-03-06T13:28:46.143Z,57.81
2023-03-06T13:31:26.348Z,58.36
2023-03-06T13:33:56.590Z,59.56
2023-03-06T13:36:30.847Z,60.70
2023-03-06T13:39:02.389Z,60.97
2023-03-06T13:41:31.700Z,62.61
2023-03-06T13:44:03.011Z,62.42
2023-03-06T13:46:35.600Z,63.17
2023-03-06T13:49:07.955Z,63.32
2023-03-06T13:51:37.469Z,64.82
2023-03-06T13:54:12.207Z,65.05
2023-03-06T13:57:03.532Z,64.09
2023-03-06T13:59:50.516Z,64.52
2023-03-06T14:02:48.836Z,63.09
2023-03-06T14:05:17.095Z,62.95
2023-03-06T14:07:46.058Z,62.07
2023-03-06T14:10:23.263Z,61.08
2023-03-06T14:12:49.748Z,60.45
2023-03-06T14:15:46.169Z,60.41
2023-03-06T14:18:12.622Z,59.05
2023-03-06T14:20:39.174Z,59.50
2023-03-06T14:23:28.510Z,57.27
2023-03-06T14:26:33.472Z,57.29
2023-03-06T14:29:01.755Z,57.04
2023-03-06T14:31:28.298Z,57.10
2023-03-06T14:34:01.916Z,57.98
2023-03-06T14:36:50.786Z,55.71
2023-03-06T14:39:24.920Z,55.62
2023-03-06T14:41:51.500Z,55.12
2023-03-06T14:44:23.529Z,56.00
2023-03-06T14:46:57.841Z,55.74
2023-03-06T14:49:25.916Z,55.59
2023-03-06T14:51:57.014Z,56.49
2023-03-06T14:54:29.495Z,56.42
2023-03-06T14:57:01.272Z,55.11
2023-03-06T14:59:29.774Z,54.76
2023-03-06T15:01:59.428Z,54.22
2023-03-06T15:04:36.818Z,55.19
2023-03-06T15:07:07.206Z,55.53
2023-03-06T15:09:36.207Z,55.28
2023-03-06T15:12:05.355Z,55.88
2023-03-06T15:14:36.376Z,57.46
2023-03-06T15:17:21.914Z,60.45
2023-03-06T15:19:50.364Z,62.40
2023-03-06T15:22:41.379Z,63.73
2023-03-06T15:25:17.046Z,65.83
2023-03-06T15:27:49.788Z,66.62
2023-03-06T15:30:28.960Z,67.02
2023-03-06T15:33:18.271Z,67.89
2023-03-06T15:36:02.002Z,67.76
2023-03-06T15:38:44.683Z,65.59
2023-03-06T15:41:34.059Z,64.97
2023-03-06T15:44:02.768Z,64.96
2023-03-06T15:46:29.382Z,66.39
2023-03-06T15:49:07.394Z,65.81
2023-03-06T15:51:33.913Z,65.25
2023-03-06T15:54:11.181Z,65.79
2023-03-06T15:56:43.354Z,67.36
2023-03-06T15:59:32.935Z,68.34
2023-03-06T16:02:07.398Z,71.07
2023-03-06T16:04:33.979Z,72.12
2023-03-06T16:07:00.517Z,73.28
2023-03-06T16:09:27.053Z,75.48
2023-03-06T16:11:54.023Z,77.16
2023-03-06T16:14:23.638Z,78.03
2023-03-06T16:16:52.354Z,78.86
2023-03-06T16:19:27.959Z,79.21
2023-03-06T16:21:55.584Z,81.13
2023-03-06T16:24:22.269Z,81.36
2023-03-06T16:26:50.943Z,82.11
2023-03-06T16:29:24.558Z,82.59
2023-03-06T16:31:51.369Z,82.27
2023-03-06T16:34:19.880Z,83.01
2023-03-06T16:36:48.505Z,83.30
2023-03-06T16:39:19.966Z,83.32
2023-03-06T16:41:47.156Z,83.83
2023-03-06T16:44:13.752Z,83.15
2023-03-06T16:46:42.732Z,83.37
2023-03-06T16:49:15.832Z,82.72
2023-03-06T16:51:42.359Z,82.77
2023-03-06T16:54:08.864Z,82.32
2023-03-06T16:56:35.444Z,83.11
2023-03-06T16:59:01.977Z,83.31
2023-03-06T17:01:28.583Z,82.85
2023-03-06T17:03:55.277Z,82.51
2023-03-06T17:06:22.728Z,83.58
2023-03-06T17:08:50.272Z,83.96
2023-03-06T17:11:17.840Z,84.07
2023-03-06T17:13:44.385Z,84.45
2023-03-06T17:16:16.079Z,84.06
2023-03-06T17:18:43.975Z,84.81
2023-03-06T17:21:10.909Z,85.09
2023-03-06T17:23:37.627Z,85.94
2023-03-06T17:26:07.824Z,85.86
2023-03-06T17:28:35.772Z,86.63
2023-03-06T17:31:03.458Z,86.79
2023-03-06T17:33:30.157Z,86.55
2023-03-06T17:36:00.922Z,86.70
2023-03-06T17:38:28.041Z,87.08
2023-03-06T17:40:54.727Z,86.40
2023-03-06T17:43:21.972Z,86.82
2023-03-06T17:45:48.515Z,86.75
2023-03-06T17:48:15.056Z,87.21
2023-03-06T17:50:41.659Z,87.47
2023-03-06T17:53:08.221Z,87.57
2023-03-06T17:55:34.749Z,87.89
2023-03-06T17:58:01.295Z,88.13
2023-03-06T18:00:27.826Z,88.27
2023-03-06T18:02:54.344Z,88.43
2023-03-06T18:05:21.872Z,88.57
2023-03-06T18:07:48.690Z,89.38
2023-03-06T18:10:15.399Z,89.11
2023-03-06T18:12:41.997Z,88.93
2023-03-06T18:15:09.099Z,88.73
2023-03-06T18:17:35.731Z,89.08
2023-03-06T18:20:02.254Z,89.31
2023-03-06T18:22:28.912Z,89.71
2023-03-06T18:24:55.483Z,90.21
2023-03-06T18:27:22.077Z,90.42
2023-03-06T18:29:48.631Z,90.33
2023-03-06T18:32:15.196Z,90.78
2023-03-06T18:34:41.747Z,91.19
2023-03-06T18:37:08.251Z,91.91
2023-03-06T18:39:34.804Z,92.35
2023-03-06T18:42:01.414Z,92.28
2023-03-06T18:44:27.928Z,92.08
2023-03-06T18:46:54.439Z,92.42
2023-03-06T18:49:21.059Z,92.05
2023-03-06T18:51:50.076Z,92.25
2023-03-06T18:54:17.732Z,92.73
2023-03-06T18:56:44.658Z,92.34
2023-03-06T18:59:17.600Z,92.43
2023-03-06T19:01:46.508Z,92.46
2023-03-06T19:04:13.412Z,92.77
2023-03-06T19:06:40.281Z,92.72
2023-03-06T19:09:07.442Z,92.92
2023-03-06T19:11:34.201Z,92.33
2023-03-06T19:14:00.974Z,92.62
2023-03-06T19:16:29.160Z,92.50
2023-03-06T19:18:56.192Z,92.14
2023-03-06T19:21:24.499Z,92.28
2023-03-06T19:23:51.131Z,91.77
2023-03-06T19:26:21.428Z,91.12
2023-03-06T19:28:48.340Z,90.59
2023-03-06T19:31:26.947Z,90.46
2023-03-06T19:33:54.924Z,90.21
2023-03-06T19:36:27.448Z,89.46
2023-03-06T19:38:58.253Z,89.49
2023-03-06T19:41:25.601Z,89.32
2023-03-06T19:43:54.442Z,89.37
2023-03-06T19:46:21.937Z,88.77
2023-03-06T19:48:48.506Z,89.16
2023-03-06T19:51:15.109Z,88.78
2023-03-06T19:53:42.037Z,88.33
2023-03-06T19:56:20.996Z,87.92
2023-03-06T19:58:47.790Z,88.55
2023-03-06T20:01:17.745Z,87.47
2023-03-06T20:03:44.572Z,87.65
2023-03-06T20:06:17.450Z,87.72
2023-03-06T20:08:44.982Z,87.99
2023-03-06T20:11:16.530Z,88.56
2023-03-06T20:13:47.302Z,88.17
2023-03-06T20:16:14.766Z,88.79
2023-03-06T20:18:41.525Z,89.46
2023-03-06T20:21:08.108Z,90.36
2023-03-06T20:23:35.059Z,90.28
2023-03-06T20:26:06.459Z,91.06
2023-03-06T20:28:33.855Z,90.92
2023-03-06T20:31:06.522Z,91.11
2023-03-06T20:33:33.285Z,91.56
2023-03-06T20:35:59.844Z,91.40
2023-03-06T20:38:26.652Z,91.42
2023-03-06T20:40:57.816Z,91.58
2023-03-06T20:43:24.357Z,91.75
2023-03-06T20:45:57.935Z,92.59
2023-03-06T20:48:24.556Z,92.31
2023-03-06T20:51:05.692Z,92.54
2023-03-06T20:53:34.272Z,93.09
2023-03-06T20:56:01.221Z,93.07
2023-03-06T20:58:30.129Z,93.14
2023-03-06T21:00:57.132Z,93.42
2023-03-06T21:03:24.316Z,93.57
2023-03-06T21:05:50.901Z,93.36
2023-03-06T21:08:17.392Z,93.07
2023-03-06T21:10:47.242Z,92.29
2023-03-06T21:13:14.451Z,92.55
2023-03-06T21:15:42.367Z,92.42
2023-03-06T21:18:09.193Z,92.66
2023-03-06T21:20:38.419Z,92.78
2023-03-06T21:23:05.323Z,93.13
2023-03-06T21:25:32.000Z,92.81
2023-03-06T21:28:00.139Z,93.50
2023-03-06T21:30:27.778Z,93.49
2023-03-06T21:32:54.556Z,93.50
2023-03-06T21:35:21.625Z,94.24
2023-03-06T21:37:48.153Z,94.05
2023-03-06T21:40:15.353Z,93.87
2023-03-06T21:42:41.851Z,94.35
2023-03-06T21:45:08.943Z,94.59
2023-03-06T21:47:38.979Z,94.62
2023-03-06T21:50:07.359Z,94.66
2023-03-06T21:52:33.910Z,94.48
2023-03-06T21:55:00.553Z,94.66
2023-03-06T21:57:27.147Z,94.57
2023-03-06T21:59:53.699Z,94.63
2023-03-06T22:02:20.290Z,94.32
2023-03-06T22:04:51.234Z,94.24
2023-03-06T22:07:18.059Z,94.05
2023-03-06T22:09:44.701Z,94.10
2023-03-06T22:12:11.540Z,93.40
2023-03-06T22:14:38.131Z,92.94
2023-03-06T22:17:04.714Z,92.38
2023-03-06T22:19:31.211Z,91.48
2023-03-06T22:21:57.723Z,90.74
2023-03-06T22:24:24.254Z,90.70
2023-03-06T22:26:50.868Z,89.69
2023-03-06T22:29:17.344Z,89.86
2023-03-06T22:31:43.903Z,89.32
2023-03-06T22:34:10.548Z,88.52
2023-03-06T22:36:37.263Z,88.79
2023-03-06T22:39:04.441Z,88.21
2023-03-06T22:41:31.023Z,88.29
2023-03-06T22:43:58.918Z,88.28
2023-03-06T22:46:26.085Z,88.05
2023-03-06T22:48:52.654Z,88.33
2023-03-06T22:51:20.492Z,88.25
2023-03-06T22:53:47.784Z,88.81
2023-03-06T22:56:20.413Z,89.04
2023-03-06T22:58:47.422Z,88.54
2023-03-06T23:01:19.242Z,88.57
2023-03-06T23:03:47.757Z,88.32
2023-03-06T23:06:21.788Z,88.31
2023-03-06T23:08:51.223Z,87.90
2023-03-06T23:11:19.739Z,86.15
2023-03-06T23:13:46.416Z,86.01
2023-03-06T23:16:13.270Z,85.58
2023-03-06T23:18:40.596Z,85.38
2023-03-06T23:21:11.133Z,84.95
2023-03-06T23:23:38.204Z,84.65
2023-03-06T23:26:08.765Z,84.49
2023-03-06T23:28:35.301Z,83.79
2023-03-06T23:31:09.273Z,83.26
2023-03-06T23:33:36.898Z,83.02
2023-03-06T23:36:05.725Z,83.19
2023-03-06T23:38:32.658Z,83.07
2023-03-06T23:41:04.335Z,82.90
2023-03-06T23:43:31.771Z,82.98
2023-03-06T23:45:58.491Z,83.15
2023-03-06T23:48:27.790Z,83.90
2023-03-06T23:50:54.461Z,83.46
2023-03-06T23:53:21.628Z,83.59
2023-03-06T23:55:49.647Z,83.61
2023-03-06T23:58:17.679Z,83.94
